sensor_id;sensor_type;location;lat;lon;timestamp;temperature;humidity
38500;DHT22;24269;51.894;4.622;2022-12-24T00:01:08;9.50;99.90
38500;DHT22;24269;51.894;4.622;2022-12-24T00:03:36;9.50;99.90
38500;DHT22;24269;51.894;4.622;2022-12-24T00:06:06;9.40;99.90
38500;DHT22;24269;51.894;4.622;2022-12-24T00:08:32;9.40;99.90
38500;DHT22;24269;51.894;4.622;2022-12-24T00:10:58;9.40;99.90
38500;DHT22;24269;51.894;4.622;2022-12-24T00:13:24;9.40;99.90
38500;DHT22;24269;51.894;4.622;2022-12-24T00:15:49;9.30;99.90
38500;DHT22;24269;51.894;4.622;2022-12-24T00:18:15;9.30;99.90
38500;DHT22;24269;51.894;4.622;2022-12-24T00:20:41;9.30;99.90
38500;DHT22;24269;51.894;4.622;2022-12-24T00:23:06;9.30;99.90
38500;DHT22;24269;51.894;4.622;2022-12-24T00:25:32;9.30;99.90
38500;DHT22;24269;51.894;4.622;2022-12-24T00:27:58;9.30;99.90
38500;DHT22;24269;51.894;4.622;2022-12-24T00:30:23;9.30;99.90
38500;DHT22;24269;51.894;4.622;2022-12-24T00:32:49;9.20;99.90
38500;DHT22;24269;51.894;4.622;2022-12-24T00:35:14;9.20;99.90
38500;DHT22;24269;51.894;4.622;2022-12-24T00:37:40;9.20;99.90
38500;DHT22;24269;51.894;4.622;2022-12-24T00:40:06;9.20;99.90
38500;DHT22;24269;51.894;4.622;2022-12-24T00:42:32;9.20;99.90
38500;DHT22;24269;51.894;4.622;2022-12-24T00:44:57;9.20;99.90
38500;DHT22;24269;51.894;4.622;2022-12-24T00:47:23;9.20;99.90
38500;DHT22;24269;51.894;4.622;2022-12-24T00:49:49;9.20;99.90
38500;DHT22;24269;51.894;4.622;2022-12-24T00:52:14;9.20;99.90
38500;DHT22;24269;51.894;4.622;2022-12-24T00:54:40;9.20;99.90
38500;DHT22;24269;51.894;4.622;2022-12-24T00:57:05;9.20;99.90
38500;DHT22;24269;51.894;4.622;2022-12-24T00:59:31;9.20;99.90
38500;DHT22;24269;51.894;4.622;2022-12-24T01:01:56;9.10;99.90
38500;DHT22;24269;51.894;4.622;2022-12-24T01:04:22;9.10;99.90
38500;DHT22;24269;51.894;4.622;2022-12-24T01:07:06;9.10;99.90
38500;DHT22;24269;51.894;4.622;2022-12-24T01:09:32;9.00;99.90
38500;DHT22;24269;51.894;4.622;2022-12-24T01:11:58;9.10;99.90
38500;DHT22;24269;51.894;4.622;2022-12-24T01:14:23;9.10;99.90
38500;DHT22;24269;51.894;4.622;2022-12-24T01:16:49;9.10;99.90
38500;DHT22;24269;51.894;4.622;2022-12-24T01:19:14;9.00;99.90
38500;DHT22;24269;51.894;4.622;2022-12-24T01:21:40;9.00;99.90
38500;DHT22;24269;51.894;4.622;2022-12-24T01:24:05;9.00;99.90
38500;DHT22;24269;51.894;4.622;2022-12-24T01:26:31;9.00;99.90
38500;DHT22;24269;51.894;4.622;2022-12-24T01:28:57;9.10;99.90
38500;DHT22;24269;51.894;4.622;2022-12-24T01:31:23;9.10;99.90
38500;DHT22;24269;51.894;4.622;2022-12-24T01:33:49;9.10;99.90
38500;DHT22;24269;51.894;4.622;2022-12-24T01:36:15;9.10;99.90
38500;DHT22;24269;51.894;4.622;2022-12-24T01:38:41;9.10;99.90
38500;DHT22;24269;51.894;4.622;2022-12-24T01:41:10;9.00;99.90
38500;DHT22;24269;51.894;4.622;2022-12-24T01:43:56;9.10;99.90
38500;DHT22;24269;51.894;4.622;2022-12-24T01:46:26;9.00;99.90
38500;DHT22;24269;51.894;4.622;2022-12-24T01:48:55;9.00;99.90
38500;DHT22;24269;51.894;4.622;2022-12-24T01:51:36;9.00;99.90
38500;DHT22;24269;51.894;4.622;2022-12-24T01:54:10;8.90;99.90
38500;DHT22;24269;51.894;4.622;2022-12-24T01:56:40;8.90;99.90
38500;DHT22;24269;51.894;4.622;2022-12-24T01:59:09;8.90;99.90
38500;DHT22;24269;51.894;4.622;2022-12-24T02:01:37;9.00;99.90
38500;DHT22;24269;51.894;4.622;2022-12-24T02:04:10;9.00;99.90
38500;DHT22;24269;51.894;4.622;2022-12-24T02:06:36;9.00;99.90
38500;DHT22;24269;51.894;4.622;2022-12-24T02:09:02;9.10;99.90
38500;DHT22;24269;51.894;4.622;2022-12-24T02:11:29;9.10;99.90
38500;DHT22;24269;51.894;4.622;2022-12-24T02:13:58;9.20;99.90
38500;DHT22;24269;51.894;4.622;2022-12-24T02:19:15;9.20;99.90
38500;DHT22;24269;51.894;4.622;2022-12-24T02:21:53;9.20;99.90
38500;DHT22;24269;51.894;4.622;2022-12-24T02:30:06;9.30;99.90
38500;DHT22;24269;51.894;4.622;2022-12-24T02:32:38;9.30;99.90
38500;DHT22;24269;51.894;4.622;2022-12-24T02:35:16;9.30;99.90
38500;DHT22;24269;51.894;4.622;2022-12-24T02:37:55;9.30;99.90
38500;DHT22;24269;51.894;4.622;2022-12-24T02:40:28;9.30;99.90
38500;DHT22;24269;51.894;4.622;2022-12-24T02:43:00;9.30;99.90
38500;DHT22;24269;51.894;4.622;2022-12-24T02:45:31;9.40;99.90
38500;DHT22;24269;51.894;4.622;2022-12-24T02:47:58;9.40;99.90
38500;DHT22;24269;51.894;4.622;2022-12-24T02:50:24;9.40;99.90
38500;DHT22;24269;51.894;4.622;2022-12-24T02:52:50;9.40;99.90
38500;DHT22;24269;51.894;4.622;2022-12-24T03:00:20;9.60;99.90
38500;DHT22;24269;51.894;4.622;2022-12-24T03:05:50;9.50;99.90
38500;DHT22;24269;51.894;4.622;2022-12-24T03:11:04;9.60;99.90
38500;DHT22;24269;51.894;4.622;2022-12-24T03:13:33;9.70;99.90
38500;DHT22;24269;51.894;4.622;2022-12-24T03:15:59;9.70;99.90
38500;DHT22;24269;51.894;4.622;2022-12-24T03:18:28;9.70;99.90
38500;DHT22;24269;51.894;4.622;2022-12-24T03:21:27;9.70;99.90
38500;DHT22;24269;51.894;4.622;2022-12-24T03:23:50;9.70;99.90
38500;DHT22;24269;51.894;4.622;2022-12-24T03:26:17;9.70;99.90
38500;DHT22;24269;51.894;4.622;2022-12-24T03:28:44;9.70;99.90
38500;DHT22;24269;51.894;4.622;2022-12-24T03:31:11;9.70;99.90
38500;DHT22;24269;51.894;4.622;2022-12-24T03:33:37;9.70;99.90
38500;DHT22;24269;51.894;4.622;2022-12-24T03:36:04;9.70;99.90
38500;DHT22;24269;51.894;4.622;2022-12-24T03:38:30;9.80;99.90
38500;DHT22;24269;51.894;4.622;2022-12-24T03:40:56;9.70;99.90
38500;DHT22;24269;51.894;4.622;2022-12-24T03:43:21;9.70;99.90
38500;DHT22;24269;51.894;4.622;2022-12-24T03:45:47;9.80;99.90
38500;DHT22;24269;51.894;4.622;2022-12-24T03:48:12;9.70;99.90
38500;DHT22;24269;51.894;4.622;2022-12-24T03:50:38;9.80;99.90
38500;DHT22;24269;51.894;4.622;2022-12-24T03:53:04;9.80;99.90
38500;DHT22;24269;51.894;4.622;2022-12-24T03:55:29;9.80;99.90
38500;DHT22;24269;51.894;4.622;2022-12-24T03:57:55;9.80;99.90
38500;DHT22;24269;51.894;4.622;2022-12-24T04:00:21;9.80;99.90
38500;DHT22;24269;51.894;4.622;2022-12-24T04:02:46;9.80;99.90
38500;DHT22;24269;51.894;4.622;2022-12-24T04:05:14;9.80;99.90
38500;DHT22;24269;51.894;4.622;2022-12-24T04:07:39;9.80;99.90
38500;DHT22;24269;51.894;4.622;2022-12-24T04:10:05;9.90;99.90
38500;DHT22;24269;51.894;4.622;2022-12-24T04:12:31;9.90;99.90
38500;DHT22;24269;51.894;4.622;2022-12-24T04:14:57;9.80;99.90
38500;DHT22;24269;51.894;4.622;2022-12-24T04:17:22;9.90;99.90
38500;DHT22;24269;51.894;4.622;2022-12-24T04:19:48;9.90;99.90
38500;DHT22;24269;51.894;4.622;2022-12-24T04:22:13;9.90;99.90
38500;DHT22;24269;51.894;4.622;2022-12-24T04:24:39;9.90;99.90
38500;DHT22;24269;51.894;4.622;2022-12-24T04:27:05;10.00;99.90
38500;DHT22;24269;51.894;4.622;2022-12-24T04:29:30;10.00;99.90
38500;DHT22;24269;51.894;4.622;2022-12-24T04:31:56;10.00;99.90
38500;DHT22;24269;51.894;4.622;2022-12-24T04:34:21;10.00;99.90
38500;DHT22;24269;51.894;4.622;2022-12-24T04:36:47;10.00;99.90
38500;DHT22;24269;51.894;4.622;2022-12-24T04:39:12;10.00;99.90
38500;DHT22;24269;51.894;4.622;2022-12-24T04:41:38;10.00;99.90
38500;DHT22;24269;51.894;4.622;2022-12-24T04:44:04;10.00;99.90
38500;DHT22;24269;51.894;4.622;2022-12-24T04:46:29;10.00;99.90
38500;DHT22;24269;51.894;4.622;2022-12-24T04:48:55;10.00;99.90
38500;DHT22;24269;51.894;4.622;2022-12-24T04:51:22;10.00;99.90
38500;DHT22;24269;51.894;4.622;2022-12-24T04:53:47;10.00;99.90
38500;DHT22;24269;51.894;4.622;2022-12-24T04:56:16;10.00;99.90
38500;DHT22;24269;51.894;4.622;2022-12-24T04:58:43;10.10;99.90
38500;DHT22;24269;51.894;4.622;2022-12-24T05:01:12;10.10;99.90
38500;DHT22;24269;51.894;4.622;2022-12-24T05:03:38;10.10;99.90
38500;DHT22;24269;51.894;4.622;2022-12-24T05:06:06;10.10;99.90
38500;DHT22;24269;51.894;4.622;2022-12-24T05:08:32;10.10;99.90
38500;DHT22;24269;51.894;4.622;2022-12-24T05:10:59;10.10;99.90
38500;DHT22;24269;51.894;4.622;2022-12-24T05:13:26;10.10;99.90
38500;DHT22;24269;51.894;4.622;2022-12-24T05:15:51;10.20;99.90
38500;DHT22;24269;51.894;4.622;2022-12-24T05:18:18;10.20;99.90
38500;DHT22;24269;51.894;4.622;2022-12-24T05:20:44;10.10;99.90
38500;DHT22;24269;51.894;4.622;2022-12-24T05:23:22;10.20;99.90
38500;DHT22;24269;51.894;4.622;2022-12-24T05:26:25;10.20;99.90
38500;DHT22;24269;51.894;4.622;2022-12-24T05:28:53;10.20;99.90
38500;DHT22;24269;51.894;4.622;2022-12-24T05:31:21;10.20;99.90
38500;DHT22;24269;51.894;4.622;2022-12-24T05:33:47;10.20;99.90
38500;DHT22;24269;51.894;4.622;2022-12-24T05:36:14;10.20;99.90
38500;DHT22;24269;51.894;4.622;2022-12-24T05:38:39;10.20;99.90
38500;DHT22;24269;51.894;4.622;2022-12-24T05:41:06;10.20;99.90
38500;DHT22;24269;51.894;4.622;2022-12-24T05:43:31;10.30;99.90
38500;DHT22;24269;51.894;4.622;2022-12-24T05:45:58;10.20;99.90
38500;DHT22;24269;51.894;4.622;2022-12-24T05:48:24;10.20;99.90
38500;DHT22;24269;51.894;4.622;2022-12-24T05:50:50;10.20;99.90
38500;DHT22;24269;51.894;4.622;2022-12-24T05:53:15;10.20;99.90
38500;DHT22;24269;51.894;4.622;2022-12-24T05:55:41;10.20;99.90
38500;DHT22;24269;51.894;4.622;2022-12-24T05:58:07;10.30;99.90
38500;DHT22;24269;51.894;4.622;2022-12-24T06:00:32;10.20;99.90
38500;DHT22;24269;51.894;4.622;2022-12-24T06:02:58;10.20;99.90
38500;DHT22;24269;51.894;4.622;2022-12-24T06:05:23;10.20;99.90
38500;DHT22;24269;51.894;4.622;2022-12-24T06:07:49;10.20;99.90
38500;DHT22;24269;51.894;4.622;2022-12-24T06:10:15;10.20;99.90
38500;DHT22;24269;51.894;4.622;2022-12-24T06:12:41;10.20;99.90
38500;DHT22;24269;51.894;4.622;2022-12-24T06:15:07;10.10;99.90
38500;DHT22;24269;51.894;4.622;2022-12-24T06:17:33;10.10;99.90
38500;DHT22;24269;51.894;4.622;2022-12-24T06:19:58;10.00;99.90
38500;DHT22;24269;51.894;4.622;2022-12-24T06:22:24;10.00;99.90
38500;DHT22;24269;51.894;4.622;2022-12-24T06:24:49;10.00;99.90
38500;DHT22;24269;51.894;4.622;2022-12-24T06:27:15;9.90;99.90
38500;DHT22;24269;51.894;4.622;2022-12-24T06:29:41;9.90;99.90
38500;DHT22;24269;51.894;4.622;2022-12-24T06:32:06;9.90;99.90
38500;DHT22;24269;51.894;4.622;2022-12-24T06:34:32;9.80;99.90
38500;DHT22;24269;51.894;4.622;2022-12-24T06:36:57;9.80;99.90
38500;DHT22;24269;51.894;4.622;2022-12-24T06:39:23;9.80;99.90
38500;DHT22;24269;51.894;4.622;2022-12-24T06:41:48;9.70;99.90
38500;DHT22;24269;51.894;4.622;2022-12-24T06:44:14;9.70;99.90
38500;DHT22;24269;51.894;4.622;2022-12-24T06:46:40;9.70;99.90
38500;DHT22;24269;51.894;4.622;2022-12-24T06:49:05;9.70;99.90
38500;DHT22;24269;51.894;4.622;2022-12-24T06:51:31;9.60;99.90
38500;DHT22;24269;51.894;4.622;2022-12-24T06:53:56;9.60;99.90
38500;DHT22;24269;51.894;4.622;2022-12-24T06:56:22;9.60;99.90
38500;DHT22;24269;51.894;4.622;2022-12-24T06:58:48;9.60;99.90
38500;DHT22;24269;51.894;4.622;2022-12-24T07:01:14;9.60;99.90
38500;DHT22;24269;51.894;4.622;2022-12-24T07:03:41;9.60;99.90
38500;DHT22;24269;51.894;4.622;2022-12-24T07:06:14;9.60;99.90
38500;DHT22;24269;51.894;4.622;2022-12-24T07:08:40;9.70;99.90
38500;DHT22;24269;51.894;4.622;2022-12-24T07:11:06;9.60;99.90
38500;DHT22;24269;51.894;4.622;2022-12-24T07:13:31;9.60;99.90
38500;DHT22;24269;51.894;4.622;2022-12-24T07:16:00;9.60;99.90
38500;DHT22;24269;51.894;4.622;2022-12-24T07:18:26;9.70;99.90
38500;DHT22;24269;51.894;4.622;2022-12-24T07:20:52;9.70;99.90
38500;DHT22;24269;51.894;4.622;2022-12-24T07:23:18;9.70;99.90
38500;DHT22;24269;51.894;4.622;2022-12-24T07:25:43;9.80;99.90
38500;DHT22;24269;51.894;4.622;2022-12-24T07:28:09;9.80;99.90
38500;DHT22;24269;51.894;4.622;2022-12-24T07:30:34;9.80;99.90
38500;DHT22;24269;51.894;4.622;2022-12-24T07:33:00;9.90;99.90
38500;DHT22;24269;51.894;4.622;2022-12-24T07:35:26;9.90;99.90
38500;DHT22;24269;51.894;4.622;2022-12-24T07:37:51;9.90;99.90
38500;DHT22;24269;51.894;4.622;2022-12-24T07:40:17;10.00;99.90
38500;DHT22;24269;51.894;4.622;2022-12-24T07:42:43;10.00;99.90
38500;DHT22;24269;51.894;4.622;2022-12-24T07:45:09;10.10;99.90
38500;DHT22;24269;51.894;4.622;2022-12-24T07:47:35;10.10;99.90
38500;DHT22;24269;51.894;4.622;2022-12-24T07:50:02;10.10;99.90
38500;DHT22;24269;51.894;4.622;2022-12-24T07:52:28;10.10;99.90
38500;DHT22;24269;51.894;4.622;2022-12-24T07:54:53;10.20;99.90
38500;DHT22;24269;51.894;4.622;2022-12-24T07:57:19;10.10;99.90
38500;DHT22;24269;51.894;4.622;2022-12-24T07:59:44;10.10;99.90
38500;DHT22;24269;51.894;4.622;2022-12-24T08:02:10;10.10;99.90
38500;DHT22;24269;51.894;4.622;2022-12-24T08:04:36;10.10;99.90
38500;DHT22;24269;51.894;4.622;2022-12-24T08:07:03;10.10;99.90
38500;DHT22;24269;51.894;4.622;2022-12-24T08:09:34;10.00;99.90
38500;DHT22;24269;51.894;4.622;2022-12-24T08:12:00;10.10;99.90
38500;DHT22;24269;51.894;4.622;2022-12-24T08:14:28;10.00;99.90
38500;DHT22;24269;51.894;4.622;2022-12-24T08:16:53;10.00;99.90
38500;DHT22;24269;51.894;4.622;2022-12-24T08:19:19;9.90;99.90
38500;DHT22;24269;51.894;4.622;2022-12-24T08:21:45;9.90;99.90
38500;DHT22;24269;51.894;4.622;2022-12-24T08:24:10;9.90;99.90
38500;DHT22;24269;51.894;4.622;2022-12-24T08:26:36;9.90;99.90
38500;DHT22;24269;51.894;4.622;2022-12-24T08:29:03;9.90;99.90
38500;DHT22;24269;51.894;4.622;2022-12-24T08:31:28;9.90;99.90
38500;DHT22;24269;51.894;4.622;2022-12-24T08:33:54;9.90;99.90
38500;DHT22;24269;51.894;4.622;2022-12-24T08:36:20;9.90;99.90
38500;DHT22;24269;51.894;4.622;2022-12-24T08:38:46;9.90;99.90
38500;DHT22;24269;51.894;4.622;2022-12-24T08:41:11;10.00;99.90
38500;DHT22;24269;51.894;4.622;2022-12-24T08:43:37;10.00;99.90
38500;DHT22;24269;51.894;4.622;2022-12-24T08:46:04;10.00;99.90
38500;DHT22;24269;51.894;4.622;2022-12-24T08:48:31;10.00;99.90
38500;DHT22;24269;51.894;4.622;2022-12-24T08:50:57;10.00;99.90
38500;DHT22;24269;51.894;4.622;2022-12-24T08:53:23;10.00;99.90
38500;DHT22;24269;51.894;4.622;2022-12-24T08:55:48;10.10;99.90
38500;DHT22;24269;51.894;4.622;2022-12-24T08:58:14;10.10;99.90
38500;DHT22;24269;51.894;4.622;2022-12-24T09:00:39;10.10;99.90
38500;DHT22;24269;51.894;4.622;2022-12-24T09:03:05;10.20;99.90
38500;DHT22;24269;51.894;4.622;2022-12-24T09:05:31;10.20;99.90
38500;DHT22;24269;51.894;4.622;2022-12-24T09:07:56;10.20;99.90
38500;DHT22;24269;51.894;4.622;2022-12-24T09:10:23;10.20;99.90
38500;DHT22;24269;51.894;4.622;2022-12-24T09:12:49;10.30;99.90
38500;DHT22;24269;51.894;4.622;2022-12-24T09:15:15;10.30;99.90
38500;DHT22;24269;51.894;4.622;2022-12-24T09:17:41;10.40;99.90
38500;DHT22;24269;51.894;4.622;2022-12-24T09:20:07;10.30;99.90
38500;DHT22;24269;51.894;4.622;2022-12-24T09:22:35;10.40;99.90
38500;DHT22;24269;51.894;4.622;2022-12-24T09:25:01;10.40;99.90
38500;DHT22;24269;51.894;4.622;2022-12-24T09:27:29;10.40;99.90
38500;DHT22;24269;51.894;4.622;2022-12-24T09:29:55;10.40;99.90
38500;DHT22;24269;51.894;4.622;2022-12-24T09:32:20;10.40;99.90
38500;DHT22;24269;51.894;4.622;2022-12-24T09:34:46;10.40;99.90
38500;DHT22;24269;51.894;4.622;2022-12-24T09:37:11;10.40;99.90
38500;DHT22;24269;51.894;4.622;2022-12-24T09:39:37;10.40;99.90
38500;DHT22;24269;51.894;4.622;2022-12-24T09:42:17;10.40;99.90
38500;DHT22;24269;51.894;4.622;2022-12-24T09:45:07;10.50;99.90
38500;DHT22;24269;51.894;4.622;2022-12-24T09:47:45;10.60;99.90
38500;DHT22;24269;51.894;4.622;2022-12-24T09:50:23;10.60;99.90
38500;DHT22;24269;51.894;4.622;2022-12-24T09:52:51;10.70;99.90
38500;DHT22;24269;51.894;4.622;2022-12-24T09:55:27;10.80;99.90
38500;DHT22;24269;51.894;4.622;2022-12-24T09:57:56;10.80;99.90
38500;DHT22;24269;51.894;4.622;2022-12-24T10:00:27;10.90;99.90
38500;DHT22;24269;51.894;4.622;2022-12-24T10:02:53;10.90;99.90
38500;DHT22;24269;51.894;4.622;2022-12-24T10:05:29;10.90;99.90
38500;DHT22;24269;51.894;4.622;2022-12-24T10:08:18;10.90;99.90
38500;DHT22;24269;51.894;4.622;2022-12-24T10:10:52;10.90;99.90
38500;DHT22;24269;51.894;4.622;2022-12-24T10:13:33;11.00;99.90
38500;DHT22;24269;51.894;4.622;2022-12-24T10:27:22;11.00;99.90
38500;DHT22;24269;51.894;4.622;2022-12-24T10:29:53;11.00;99.90
38500;DHT22;24269;51.894;4.622;2022-12-24T10:32:28;11.00;99.90
38500;DHT22;24269;51.894;4.622;2022-12-24T10:35:03;11.00;99.90
38500;DHT22;24269;51.894;4.622;2022-12-24T10:37:30;11.10;99.90
38500;DHT22;24269;51.894;4.622;2022-12-24T10:39:57;11.10;99.90
38500;DHT22;24269;51.894;4.622;2022-12-24T10:42:38;11.10;99.90
38500;DHT22;24269;51.894;4.622;2022-12-24T10:45:13;11.10;99.90
38500;DHT22;24269;51.894;4.622;2022-12-24T10:47:41;11.10;99.90
38500;DHT22;24269;51.894;4.622;2022-12-24T10:50:15;11.20;99.90
38500;DHT22;24269;51.894;4.622;2022-12-24T10:52:44;11.10;99.90
38500;DHT22;24269;51.894;4.622;2022-12-24T10:57:44;11.10;99.90
38500;DHT22;24269;51.894;4.622;2022-12-24T11:00:21;11.10;99.90
38500;DHT22;24269;51.894;4.622;2022-12-24T11:02:47;11.30;99.90
38500;DHT22;24269;51.894;4.622;2022-12-24T11:05:33;11.40;99.90
38500;DHT22;24269;51.894;4.622;2022-12-24T11:08:04;11.60;99.90
38500;DHT22;24269;51.894;4.622;2022-12-24T11:10:30;11.60;99.90
38500;DHT22;24269;51.894;4.622;2022-12-24T11:12:57;11.60;99.90
38500;DHT22;24269;51.894;4.622;2022-12-24T11:15:30;11.60;99.90
38500;DHT22;24269;51.894;4.622;2022-12-24T11:18:02;11.60;99.90
38500;DHT22;24269;51.894;4.622;2022-12-24T11:20:31;11.50;99.90
38500;DHT22;24269;51.894;4.622;2022-12-24T11:22:57;11.50;99.90
38500;DHT22;24269;51.894;4.622;2022-12-24T11:25:31;11.50;99.90
38500;DHT22;24269;51.894;4.622;2022-12-24T11:28:19;11.60;99.90
38500;DHT22;24269;51.894;4.622;2022-12-24T11:31:28;11.70;99.90
38500;DHT22;24269;51.894;4.622;2022-12-24T11:33:49;11.70;99.90
38500;DHT22;24269;51.894;4.622;2022-12-24T11:36:17;11.70;99.90
38500;DHT22;24269;51.894;4.622;2022-12-24T11:38:55;11.70;99.90
38500;DHT22;24269;51.894;4.622;2022-12-24T11:41:23;11.70;99.90
38500;DHT22;24269;51.894;4.622;2022-12-24T11:43:57;11.70;99.90
38500;DHT22;24269;51.894;4.622;2022-12-24T11:51:38;11.50;99.90
38500;DHT22;24269;51.894;4.622;2022-12-24T11:54:26;11.50;99.90
38500;DHT22;24269;51.894;4.622;2022-12-24T11:56:54;11.60;99.90
38500;DHT22;24269;51.894;4.622;2022-12-24T11:59:36;11.50;99.90
38500;DHT22;24269;51.894;4.622;2022-12-24T12:02:25;11.40;99.90
38500;DHT22;24269;51.894;4.622;2022-12-24T12:05:04;11.50;99.90
38500;DHT22;24269;51.894;4.622;2022-12-24T12:07:34;11.40;99.90
38500;DHT22;24269;51.894;4.622;2022-12-24T12:12:41;11.60;99.90
38500;DHT22;24269;51.894;4.622;2022-12-24T12:15:19;11.70;99.90
38500;DHT22;24269;51.894;4.622;2022-12-24T12:17:55;11.80;99.90
38500;DHT22;24269;51.894;4.622;2022-12-24T12:20:33;11.80;99.90
38500;DHT22;24269;51.894;4.622;2022-12-24T12:28:46;11.70;99.90
38500;DHT22;24269;51.894;4.622;2022-12-24T12:34:15;11.70;99.90
38500;DHT22;24269;51.894;4.622;2022-12-24T12:36:47;11.70;99.90
38500;DHT22;24269;51.894;4.622;2022-12-24T12:39:13;11.70;99.90
38500;DHT22;24269;51.894;4.622;2022-12-24T12:42:03;11.70;99.90
38500;DHT22;24269;51.894;4.622;2022-12-24T12:50:29;11.90;99.90
38500;DHT22;24269;51.894;4.622;2022-12-24T12:56:14;11.90;99.90
38500;DHT22;24269;51.894;4.622;2022-12-24T13:02:03;11.90;99.90
38500;DHT22;24269;51.894;4.622;2022-12-24T13:10:12;11.50;99.90
38500;DHT22;24269;51.894;4.622;2022-12-24T13:13:08;11.50;99.90
38500;DHT22;24269;51.894;4.622;2022-12-24T13:19:57;11.30;99.90
38500;DHT22;24269;51.894;4.622;2022-12-24T13:21:46;11.30;99.90
38500;DHT22;24269;51.894;4.622;2022-12-24T13:24:15;11.20;99.90
38500;DHT22;24269;51.894;4.622;2022-12-24T13:29:52;11.00;99.90
38500;DHT22;24269;51.894;4.622;2022-12-24T13:40:13;10.90;99.90
38500;DHT22;24269;51.894;4.622;2022-12-24T13:50:50;10.80;99.90
38500;DHT22;24269;51.894;4.622;2022-12-24T13:53:40;10.80;99.90
38500;DHT22;24269;51.894;4.622;2022-12-24T13:56:21;10.70;99.90
38500;DHT22;24269;51.894;4.622;2022-12-24T13:58:48;10.70;99.90
38500;DHT22;24269;51.894;4.622;2022-12-24T14:01:19;10.70;99.90
38500;DHT22;24269;51.894;4.622;2022-12-24T14:03:56;10.80;99.90
38500;DHT22;24269;51.894;4.622;2022-12-24T14:06:38;10.80;99.90
38500;DHT22;24269;51.894;4.622;2022-12-24T14:09:11;10.90;99.90
38500;DHT22;24269;51.894;4.622;2022-12-24T14:14:33;11.00;99.90
38500;DHT22;24269;51.894;4.622;2022-12-24T14:19:37;11.00;99.90
38500;DHT22;24269;51.894;4.622;2022-12-24T14:22:19;10.90;99.90
38500;DHT22;24269;51.894;4.622;2022-12-24T14:25:01;10.90;99.90
38500;DHT22;24269;51.894;4.622;2022-12-24T14:27:46;10.90;99.90
38500;DHT22;24269;51.894;4.622;2022-12-24T14:30:23;10.90;99.90
38500;DHT22;24269;51.894;4.622;2022-12-24T14:32:50;10.90;99.90
38500;DHT22;24269;51.894;4.622;2022-12-24T14:38:10;10.80;99.90
38500;DHT22;24269;51.894;4.622;2022-12-24T14:40:59;10.80;99.90
38500;DHT22;24269;51.894;4.622;2022-12-24T14:43:52;10.80;99.90
38500;DHT22;24269;51.894;4.622;2022-12-24T14:46:48;10.70;99.90
38500;DHT22;24269;51.894;4.622;2022-12-24T14:49:24;10.60;99.90
38500;DHT22;24269;51.894;4.622;2022-12-24T14:52:07;10.60;99.90
38500;DHT22;24269;51.894;4.622;2022-12-24T14:54:41;10.60;99.90
38500;DHT22;24269;51.894;4.622;2022-12-24T14:57:10;10.50;99.90
38500;DHT22;24269;51.894;4.622;2022-12-24T14:59:56;10.50;99.90
38500;DHT22;24269;51.894;4.622;2022-12-24T15:05:05;10.40;99.90
38500;DHT22;24269;51.894;4.622;2022-12-24T15:07:32;10.30;99.90
38500;DHT22;24269;51.894;4.622;2022-12-24T15:10:00;10.20;99.90
38500;DHT22;24269;51.894;4.622;2022-12-24T15:12:26;10.20;99.90
38500;DHT22;24269;51.894;4.622;2022-12-24T15:14:52;10.20;99.90
38500;DHT22;24269;51.894;4.622;2022-12-24T15:17:17;10.10;99.90
38500;DHT22;24269;51.894;4.622;2022-12-24T15:19:46;10.10;99.90
38500;DHT22;24269;51.894;4.622;2022-12-24T15:22:23;10.00;99.90
38500;DHT22;24269;51.894;4.622;2022-12-24T15:24:50;10.00;99.90
38500;DHT22;24269;51.894;4.622;2022-12-24T15:27:17;9.90;99.90
38500;DHT22;24269;51.894;4.622;2022-12-24T15:29:46;9.90;99.90
38500;DHT22;24269;51.894;4.622;2022-12-24T15:32:14;9.80;99.90
38500;DHT22;24269;51.894;4.622;2022-12-24T15:34:42;9.80;99.90
38500;DHT22;24269;51.894;4.622;2022-12-24T15:37:29;9.80;99.90
38500;DHT22;24269;51.894;4.622;2022-12-24T15:42:29;9.80;99.90
38500;DHT22;24269;51.894;4.622;2022-12-24T15:45:16;9.80;99.90
38500;DHT22;24269;51.894;4.622;2022-12-24T15:50:29;9.70;99.90
38500;DHT22;24269;51.894;4.622;2022-12-24T15:52:56;9.60;99.90
38500;DHT22;24269;51.894;4.622;2022-12-24T15:55:30;9.60;99.90
38500;DHT22;24269;51.894;4.622;2022-12-24T15:57:56;9.70;99.90
38500;DHT22;24269;51.894;4.622;2022-12-24T16:00:24;9.60;99.90
38500;DHT22;24269;51.894;4.622;2022-12-24T16:02:52;9.60;99.90
38500;DHT22;24269;51.894;4.622;2022-12-24T16:16:18;9.60;99.90
38500;DHT22;24269;51.894;4.622;2022-12-24T16:21:24;9.50;99.90
38500;DHT22;24269;51.894;4.622;2022-12-24T16:23:54;9.50;99.90
38500;DHT22;24269;51.894;4.622;2022-12-24T16:26:20;9.40;99.90
38500;DHT22;24269;51.894;4.622;2022-12-24T16:28:46;9.40;99.90
38500;DHT22;24269;51.894;4.622;2022-12-24T16:31:31;9.30;99.90
38500;DHT22;24269;51.894;4.622;2022-12-24T16:33:58;9.30;99.90
38500;DHT22;24269;51.894;4.622;2022-12-24T16:36:25;9.30;99.90
38500;DHT22;24269;51.894;4.622;2022-12-24T16:38:50;9.40;99.90
38500;DHT22;24269;51.894;4.622;2022-12-24T16:41:34;9.40;99.90
38500;DHT22;24269;51.894;4.622;2022-12-24T16:44:20;9.40;99.90
38500;DHT22;24269;51.894;4.622;2022-12-24T16:46:46;9.50;99.90
38500;DHT22;24269;51.894;4.622;2022-12-24T16:49:16;9.50;99.90
38500;DHT22;24269;51.894;4.622;2022-12-24T16:51:42;9.50;99.90
38500;DHT22;24269;51.894;4.622;2022-12-24T16:54:10;9.50;99.90
38500;DHT22;24269;51.894;4.622;2022-12-24T16:56:36;9.50;99.90
38500;DHT22;24269;51.894;4.622;2022-12-24T16:59:01;9.40;99.90
38500;DHT22;24269;51.894;4.622;2022-12-24T17:01:27;9.40;99.90
38500;DHT22;24269;51.894;4.622;2022-12-24T17:03:52;9.40;99.90
38500;DHT22;24269;51.894;4.622;2022-12-24T17:06:18;9.40;99.90
38500;DHT22;24269;51.894;4.622;2022-12-24T17:08:44;9.40;99.90
38500;DHT22;24269;51.894;4.622;2022-12-24T17:11:09;9.40;99.90
38500;DHT22;24269;51.894;4.622;2022-12-24T17:13:35;9.30;99.90
38500;DHT22;24269;51.894;4.622;2022-12-24T17:16:00;9.20;99.90
38500;DHT22;24269;51.894;4.622;2022-12-24T17:18:27;9.10;99.90
38500;DHT22;24269;51.894;4.622;2022-12-24T17:21:00;9.10;99.90
38500;DHT22;24269;51.894;4.622;2022-12-24T17:23:26;9.00;99.90
38500;DHT22;24269;51.894;4.622;2022-12-24T17:25:52;9.00;99.90
38500;DHT22;24269;51.894;4.622;2022-12-24T17:28:17;9.10;99.90
38500;DHT22;24269;51.894;4.622;2022-12-24T17:30:43;9.10;99.90
38500;DHT22;24269;51.894;4.622;2022-12-24T17:33:09;9.10;99.90
38500;DHT22;24269;51.894;4.622;2022-12-24T17:35:39;9.10;99.90
38500;DHT22;24269;51.894;4.622;2022-12-24T17:38:04;9.10;99.90
38500;DHT22;24269;51.894;4.622;2022-12-24T17:40:30;9.10;99.90
38500;DHT22;24269;51.894;4.622;2022-12-24T17:42:55;9.00;99.90
38500;DHT22;24269;51.894;4.622;2022-12-24T17:45:21;8.90;99.90
38500;DHT22;24269;51.894;4.622;2022-12-24T17:47:47;8.90;99.90
38500;DHT22;24269;51.894;4.622;2022-12-24T17:50:13;8.80;99.90